createdAt,value
2023-04-13T00:04:13.534Z,100100.41
2023-04-13T00:09:12.988Z,100093.94
2023-04-13T00:14:12.139Z,100091.41
2023-04-13T00:19:13.089Z,100098.63
2023-04-13T00:24:11.956Z,100084.56
2023-04-13T00:29:10.625Z,100084.78
2023-04-13T00:34:09.326Z,100083.47
2023-04-13T00:39:09.465Z,100079.38
2023-04-13T00:44:10.726Z,100083.09
2023-04-13T00:49:09.556Z,100084.75
2023-04-13T00:54:10.796Z,100093.38
2023-04-13T00:59:12.599Z,100079.94
2023-04-13T01:04:11.460Z,100084.56
2023-04-13T01:09:16.580Z,100085.94
2023-04-13T01:14:23.723Z,100083.41
2023-04-13T01:19:41.442Z,100082.41
2023-04-13T01:24:58.593Z,100074.03
2023-04-13T01:30:01.444Z,100077.78
2023-04-13T01:35:01.172Z,100078.34
2023-04-13T01:40:00.396Z,100094.78
2023-04-13T01:45:17.417Z,100096.81
2023-04-13T01:50:25.948Z,100105.19
2023-04-13T01:55:42.976Z,100105.44
2023-04-13T02:00:44.585Z,100108.91
2023-04-13T02:05:45.051Z,100108.75
2023-04-13T02:10:44.120Z,100107.31
2023-04-13T02:15:48.014Z,100107.91
2023-04-13T02:20:46.976Z,100120.38
2023-04-13T02:25:48.232Z,100125.28
2023-04-13T02:30:49.788Z,100119.25
2023-04-13T02:35:49.023Z,100118.94
2023-04-13T02:40:49.518Z,100118.84
2023-04-13T02:45:49.981Z,100127.53
2023-04-13T02:50:51.246Z,100125.09
2023-04-13T02:55:55.666Z,100127.63
2023-04-13T03:00:56.753Z,100128.72
2023-04-13T03:05:56.646Z,100134.75
2023-04-13T03:11:11.014Z,100149.81
2023-04-13T03:16:17.834Z,100154.72
2023-04-13T03:21:17.296Z,100159.22
2023-04-13T03:26:27.689Z,100157.03
2023-04-13T03:31:33.495Z,100162.09
2023-04-13T03:36:32.925Z,100173.63
2023-04-13T03:41:32.212Z,100174.78
2023-04-13T03:46:33.349Z,100178.03
2023-04-13T03:51:38.127Z,100184.06
2023-04-13T03:56:37.035Z,100185.88
2023-04-13T04:01:37.814Z,100192.44
2023-04-13T04:06:37.646Z,100198.88
2023-04-13T04:11:44.735Z,100193.09
2023-04-13T04:16:46.309Z,100194.56
2023-04-13T04:21:47.545Z,100203.69
2023-04-13T04:26:50.633Z,100203.16
2023-04-13T04:31:53.797Z,100206.97
2023-04-13T04:36:57.411Z,100218.19
2023-04-13T04:42:04.259Z,100220.44
2023-04-13T04:47:06.142Z,100217.06
2023-04-13T04:52:13.036Z,100223.19
2023-04-13T04:57:14.667Z,100228.13
2023-04-13T05:02:16.788Z,100224.41
2023-04-13T05:07:17.901Z,100222.28
2023-04-13T05:12:17.753Z,100233.66
2023-04-13T05:17:20.292Z,100224.97
2023-04-13T05:22:19.390Z,100217.59
2023-04-13T05:27:23.936Z,100232.41
2023-04-13T05:32:27.166Z,100226.13
2023-04-13T05:37:29.065Z,100230.41
2023-04-13T05:42:28.122Z,100236.06
2023-04-13T05:47:30.469Z,100239.22
2023-04-13T05:52:34.880Z,100236.25
2023-04-13T05:57:34.779Z,100237.72
2023-04-13T06:02:42.054Z,100241.34
2023-04-13T06:07:44.964Z,100251.25
2023-04-13T06:12:44.706Z,100253.47
2023-04-13T06:17:45.833Z,100253.09
2023-04-13T06:22:44.786Z,100252.69
2023-04-13T06:27:44.634Z,100261.56
2023-04-13T06:32:43.546Z,100267.34
2023-04-13T06:37:45.497Z,100272.91
2023-04-13T06:42:49.824Z,100264.31
2023-04-13T06:48:08.910Z,100261.09
2023-04-13T06:53:11.409Z,100280.28
2023-04-13T06:58:11.820Z,100280.59
2023-04-13T07:03:10.946Z,100281.97
2023-04-13T07:08:11.861Z,100281.50
2023-04-13T07:13:12.807Z,100285.88
2023-04-13T07:18:13.055Z,100277.41
2023-04-13T07:23:13.393Z,100277.50
2023-04-13T07:28:12.740Z,100274.69
2023-04-13T07:33:12.284Z,100277.03
2023-04-13T07:38:11.483Z,100273.41
2023-04-13T07:43:12.022Z,100276.66
2023-04-13T07:48:13.037Z,100265.66
2023-04-13T07:53:13.217Z,100285.81
2023-04-13T07:58:14.327Z,100276.91
2023-04-13T08:03:13.580Z,100277.03
2023-04-13T08:08:12.719Z,100260.38
2023-04-13T08:13:15.522Z,100260.78
2023-04-13T08:18:15.678Z,100258.44
2023-04-13T08:23:14.804Z,100257.81
2023-04-13T08:28:15.178Z,100258.00
2023-04-13T08:33:14.352Z,100273.75
2023-04-13T08:38:14.276Z,100262.00
2023-04-13T08:43:21.274Z,100253.84
2023-04-13T08:48:23.166Z,100258.03
2023-04-13T08:53:23.337Z,100239.19
2023-04-13T08:58:28.502Z,100259.41
2023-04-13T09:03:31.086Z,100231.41
2023-04-13T09:08:34.724Z,100222.91
2023-04-13T09:13:37.390Z,100210.91
2023-04-13T09:18:36.527Z,100204.78
2023-04-13T09:23:41.149Z,100190.97
2023-04-13T09:28:50.880Z,100196.22
2023-04-13T09:33:51.272Z,100196.63
2023-04-13T09:38:53.708Z,100200.22
2023-04-13T09:43:54.060Z,100200.03
2023-04-13T09:49:00.477Z,100200.50
2023-04-13T09:53:59.647Z,100189.25
2023-04-13T09:59:00.135Z,100179.13
2023-04-13T10:03:59.665Z,100185.75
2023-04-13T10:09:03.387Z,100167.81
2023-04-13T10:14:09.235Z,100159.34
2023-04-13T10:19:12.625Z,100167.03
2023-04-13T10:24:13.308Z,100159.84
2023-04-13T10:29:14.923Z,100165.59
2023-04-13T10:34:31.626Z,100145.66
2023-04-13T10:39:32.559Z,100163.00
2023-04-13T10:44:44.400Z,100148.31
2023-04-13T10:49:44.131Z,100149.97
2023-04-13T10:54:44.531Z,100153.44
2023-04-13T10:59:58.150Z,100139.44
2023-04-13T11:04:58.663Z,100134.34
2023-04-13T11:15:01.753Z,100133.00
2023-04-13T11:20:09.973Z,100126.13
2023-04-13T11:25:10.782Z,100128.81
2023-04-13T11:30:13.358Z,100132.91
2023-04-13T11:35:16.676Z,100122.81
2023-04-13T11:40:21.517Z,100124.03
2023-04-13T11:45:23.494Z,100108.66
2023-04-13T11:50:22.900Z,100111.50
2023-04-13T11:55:24.025Z,100104.69
2023-04-13T12:00:26.685Z,100098.97
2023-04-13T12:05:29.214Z,100102.13
2023-04-13T12:10:39.202Z,100085.44
2023-04-13T12:16:05.278Z,100084.59
2023-04-13T12:21:06.557Z,100098.75
2023-04-13T12:31:12.458Z,100087.09
2023-04-13T12:36:11.856Z,100081.69
2023-04-13T12:41:11.500Z,100072.09
2023-04-13T12:46:12.535Z,100051.50
2023-04-13T12:51:11.801Z,100062.38
2023-04-13T12:56:11.123Z,100038.63
2023-04-13T13:01:09.952Z,100042.53
2023-04-13T13:06:10.385Z,100046.09
2023-04-13T13:11:09.313Z,100033.59
2023-04-13T13:16:08.455Z,100037.38
2023-04-13T13:21:07.443Z,100041.00
2023-04-13T13:26:23.314Z,100034.38
2023-04-13T13:31:23.742Z,100031.13
2023-04-13T13:36:22.555Z,100026.53
2023-04-13T13:41:23.630Z,100015.56
2023-04-13T13:46:22.796Z,100024.88
2023-04-13T13:51:22.905Z,100013.47
2023-04-13T13:56:23.478Z,100013.19
2023-04-13T14:01:22.361Z,99999.94
2023-04-13T14:06:21.453Z,100004.91
2023-04-13T14:11:20.392Z,100006.34
2023-04-13T14:16:20.986Z,100002.59
2023-04-13T14:21:21.636Z,99998.59
2023-04-13T14:26:20.804Z,99999.69
2023-04-13T14:31:21.271Z,100001.66
2023-04-13T14:36:19.829Z,99996.00
2023-04-13T14:41:18.539Z,99990.94
2023-04-13T14:46:17.488Z,99996.78
2023-04-13T14:51:18.745Z,100004.19
2023-04-13T14:56:18.056Z,99995.88
2023-04-13T15:01:18.047Z,99998.34
2023-04-13T15:06:19.035Z,99999.94
2023-04-13T15:11:17.718Z,99993.41
2023-04-13T15:16:17.013Z,99996.41
2023-04-13T15:21:15.782Z,99996.13
2023-04-13T15:26:19.296Z,99995.56
2023-04-13T15:31:19.429Z,99990.38
2023-04-13T15:36:19.143Z,99995.94
2023-04-13T15:41:20.094Z,99993.75
2023-04-13T15:46:18.858Z,100000.31
2023-04-13T15:51:17.629Z,99995.97
2023-04-13T15:56:16.605Z,99981.97
2023-04-13T16:01:17.016Z,99979.09
2023-04-13T16:06:15.672Z,99980.31
2023-04-13T16:11:14.376Z,99981.13
2023-04-13T16:16:15.083Z,99985.84
2023-04-13T16:21:19.264Z,99993.75
2023-04-13T16:26:17.890Z,100006.84
2023-04-13T16:31:17.135Z,99999.88
2023-04-13T16:36:17.333Z,100000.59
2023-04-13T16:41:16.933Z,100003.59
2023-04-13T16:46:16.383Z,100007.34
2023-04-13T16:51:17.189Z,100012.31
2023-04-13T16:56:17.382Z,100019.69
2023-04-13T17:01:16.249Z,100012.06
2023-04-13T17:06:15.222Z,100023.53
2023-04-13T17:11:13.956Z,100030.63
2023-04-13T17:16:14.240Z,100026.22
2023-04-13T17:21:13.759Z,100028.16
2023-04-13T17:26:12.553Z,100048.88
2023-04-13T17:31:11.473Z,100042.88
2023-04-13T17:36:11.767Z,100052.84
2023-04-13T17:41:11.130Z,100062.09
2023-04-13T17:46:09.995Z,100069.38
2023-04-13T17:51:11.874Z,100068.00
2023-04-13T17:56:15.789Z,100078.31
2023-04-13T18:01:14.706Z,100071.25
2023-04-13T18:06:15.056Z,100075.13
2023-04-13T18:11:16.831Z,100078.03
2023-04-13T18:16:15.875Z,100083.25
2023-04-13T18:21:19.352Z,100079.47
2023-04-13T18:26:18.261Z,100074.94
2023-04-13T18:31:17.147Z,100074.16
2023-04-13T18:36:17.839Z,100078.34
2023-04-13T18:41:16.649Z,100076.81
2023-04-13T18:46:15.604Z,100085.09
2023-04-13T18:51:16.787Z,100100.22
2023-04-13T18:56:17.068Z,100094.41
2023-04-13T19:01:17.474Z,100092.78
2023-04-13T19:06:16.562Z,100098.56
2023-04-13T19:11:17.909Z,100107.16
2023-04-13T19:16:16.792Z,100110.53
2023-04-13T19:21:15.758Z,100107.19
2023-04-13T19:26:14.412Z,100110.38
2023-04-13T19:31:14.812Z,100115.59
2023-04-13T19:36:14.909Z,100104.66
2023-04-13T19:41:14.137Z,100116.00
2023-04-13T19:46:14.702Z,100118.50
2023-04-13T19:51:13.491Z,100107.47
2023-04-13T19:56:12.335Z,100109.53
2023-04-13T20:01:13.650Z,100096.97
2023-04-13T20:06:14.190Z,100097.38
2023-04-13T20:11:13.014Z,100102.09
2023-04-13T20:16:12.130Z,100094.22
2023-04-13T20:21:11.012Z,100099.03
2023-04-13T20:26:11.189Z,100099.06
2023-04-13T20:31:10.360Z,100092.94
2023-04-13T20:36:09.417Z,100096.94
2023-04-13T20:41:08.226Z,100097.25
2023-04-13T20:46:10.109Z,100084.63
2023-04-13T20:51:09.842Z,100082.25
2023-04-13T20:56:09.105Z,100078.63
2023-04-13T21:01:09.484Z,100081.00
2023-04-13T21:06:08.467Z,100089.34
2023-04-13T21:11:07.320Z,100065.59
2023-04-13T21:16:08.700Z,100071.19
2023-04-13T21:21:09.334Z,100072.22
2023-04-13T21:26:08.340Z,100066.44
2023-04-13T21:31:07.523Z,100064.56
2023-04-13T21:41:16.042Z,100064.19
2023-04-13T21:46:16.438Z,100066.84
2023-04-13T21:51:16.854Z,100070.00
2023-04-13T21:56:17.542Z,100067.84
2023-04-13T22:01:16.568Z,100061.00
2023-04-13T22:06:16.889Z,100053.16
2023-04-13T22:11:16.121Z,100055.09
2023-04-13T22:16:15.075Z,100050.56
2023-04-13T22:21:13.947Z,100049.28
2023-04-13T22:26:14.258Z,100057.16
2023-04-13T22:31:13.078Z,100059.09
2023-04-13T22:36:19.578Z,100058.41
2023-04-13T22:41:20.062Z,100053.94
2023-04-13T22:46:19.434Z,100039.84
2023-04-13T22:51:18.222Z,100036.69
2023-04-13T22:56:17.241Z,100037.69
2023-04-13T23:01:17.481Z,100040.47
2023-04-13T23:06:16.294Z,100042.75
2023-04-13T23:11:15.173Z,100038.56
2023-04-13T23:16:13.990Z,100036.19
2023-04-13T23:21:14.557Z,100036.78
2023-04-13T23:26:13.283Z,100049.28
2023-04-13T23:31:12.149Z,100039.78
2023-04-13T23:36:11.816Z,100038.59
2023-04-13T23:41:12.236Z,100036.78
2023-04-13T23:46:11.276Z,100029.91
2023-04-13T23:51:10.065Z,100023.19
2023-04-13T23:56:09.215Z,100022.59
